KIPL/IPL METAR and TAF weather

Enter ICAO airport designator
Station Type Date Time Source
KIPL METAR 2019/12/13 16:53 UTC NOAA

KIPL 131653Z AUTO 28003KT 10SM CLR 13/07 A3017 RMK AO2 SLP218 T01330072


Station Type Date Time Source
KIPL Decoded METAR 2019/12/13 16:53 UTC NOAA

Imperial, Imperial County Airport, CA, United States (KIPL) 32-50-03N 115-34-43W -15M
Dec 13, 2019 - 11:53 AM EST / 2019.12.13 1653 UTC
Wind: from the W (280 degrees) at 3 MPH (3 KT):0
Visibility: 10 mile(s):0
Sky conditions: clear
Temperature: 55.9 F (13.3 C)
Dew Point: 45.0 F (7.2 C)
Relative Humidity: 66%
Pressure (altimeter): 30.17 in. Hg (1021 hPa)
ob: KIPL 131653Z AUTO 28003KT 10SM CLR 13/07 A3017 RMK AO2 SLP218 T01330072
cycle: 17

Station Type Date Time Source
KIPL TAF 2019/12/13 12:22 UTC NOAA

TAF KIPL 131120Z 1312/1412 VRB04KT P6SM FEW250
FM140300 24005KT P6SM FEW250

Example: see airport list